Pagrindinis puslapis
METAR-TAF:

METAR-TAF

Oro uostai :

Fernando de Noronija, Pernambuco, Brazilija

platuma: 03-51S, ilguma: 032-25W, Aukštis: 56 m

Dabartinis oras

Ataskaita buvo paskelbta 3 valandos ir 6 minutes, ne 21:00 UTC
Vėjas 5 kt iš Rytų/Pietryčių
Temperatūra 28°C
Drėgmė 89%
Slėgis 1011 hPa
Matomumas 10 km arba daugiau
Mažai debesys ne aukštis 1500 ft

METAR: SBFN 052100Z 11005KT 9999 FEW015 28/26 Q1011

Laikas: 22:06 (00:06 UTC)

Prognozė

Ataskaita buvo paskelbta 3 valandos ir 6 minutes, ne 21:00 UTC
Prognozė galioja nuo 06 metu 00 UTC su 06 metu 12 UTC
Vėjas 8 kt iš Pietryčių
Matomumas 10 km arba daugiau
Išsisklaidę debesys ne aukštis 2000 ft

TAF: SBFN 052100Z 0600/0612 13008KT 9999 SCT020 TN25/0605Z TX28/0611Z RMK PEA

Orai ataskaitas ir orų prognozės (METAR, TAF).

turimą stotys yra geltonos ir raudonos taškus žemėlapyje.

Perkelti pele per norėdami pamatyti stoties vardą.

Tada spustelėkite, norėdami matyti oro stebėjimo ir prognozės.

Norėdami pakeisti žemėlapį: spustelėkite ant žalios mygtukų su juodo kryžiaus žemyn,; žalią mygtuką su brūkšneliu, jei norite nutolinti; arba žalių rodyklių gretimoms žemėlapius.


METAR-TAF: